createdAt,value
2019-03-28T00:00:02.148Z,0.80
2019-03-28T00:02:35.940Z,0.70
2019-03-28T00:05:10.098Z,0.80
2019-03-28T00:07:44.329Z,0.60
2019-03-28T00:10:19.290Z,0.70
2019-03-28T00:12:53.210Z,0.60
2019-03-28T00:15:26.841Z,0.70
2019-03-28T00:18:01.078Z,0.73
2019-03-28T00:20:35.327Z,0.73
2019-03-28T00:23:45.718Z,0.50
2019-03-28T00:26:30.107Z,0.50
2019-03-28T00:28:55.373Z,0.80
2019-03-28T00:31:29.187Z,0.60
2019-03-28T00:34:02.977Z,0.70
2019-03-28T00:36:36.616Z,0.57
2019-03-28T00:39:11.145Z,1.00
2019-03-28T00:41:45.136Z,0.70
2019-03-28T00:44:20.266Z,0.73
2019-03-28T00:46:54.944Z,0.90
2019-03-28T00:49:28.828Z,0.67
2019-03-28T00:52:02.552Z,0.90
2019-03-28T00:54:36.408Z,0.70
2019-03-28T00:57:10.731Z,0.60
2019-03-28T00:59:44.462Z,0.60
2019-03-28T01:02:18.713Z,0.73
2019-03-28T01:04:53.065Z,0.60
2019-03-28T01:07:26.991Z,0.83
2019-03-28T01:10:01.339Z,0.70
2019-03-28T01:12:35.096Z,0.67
2019-03-28T01:15:10.362Z,0.43
2019-03-28T01:17:45.749Z,0.50
2019-03-28T01:20:19.634Z,0.60
2019-03-28T01:22:53.635Z,0.70
2019-03-28T01:25:27.678Z,0.50
2019-03-28T01:28:01.523Z,0.50
2019-03-28T01:30:35.923Z,0.53
2019-03-28T01:33:09.852Z,0.50
2019-03-28T01:35:44.181Z,0.63
2019-03-28T01:38:18.035Z,0.60
2019-03-28T01:40:52.019Z,0.50
2019-03-28T01:43:25.859Z,0.70
2019-03-28T01:45:59.830Z,0.60
2019-03-28T01:48:33.755Z,0.53
2019-03-28T01:51:08.911Z,0.33
2019-03-28T01:53:42.597Z,0.60
2019-03-28T01:56:16.209Z,0.60
2019-03-28T01:58:49.876Z,0.60
2019-03-28T02:01:24.134Z,0.57
2019-03-28T02:03:58.187Z,0.47
2019-03-28T02:06:32.308Z,0.50
2019-03-28T02:09:07.378Z,0.50
2019-03-28T02:11:41.093Z,0.80
2019-03-28T02:14:14.808Z,0.30
2019-03-28T02:16:48.681Z,0.50
2019-03-28T02:19:22.479Z,0.40
2019-03-28T02:21:56.286Z,0.40
2019-03-28T02:24:29.985Z,0.40
2019-03-28T02:27:03.764Z,0.27
2019-03-28T02:29:37.469Z,0.40
2019-03-28T02:32:11.166Z,0.40
2019-03-28T02:34:48.639Z,0.40
2019-03-28T02:37:20.038Z,0.40
2019-03-28T02:39:53.797Z,0.47
2019-03-28T02:42:28.189Z,0.67
2019-03-28T02:45:01.894Z,0.60
2019-03-28T02:47:35.943Z,0.50
2019-03-28T02:50:11.394Z,0.50
2019-03-28T02:52:45.631Z,0.60
2019-03-28T02:55:20.569Z,0.63
2019-03-28T02:57:54.372Z,0.43
2019-03-28T03:00:27.920Z,0.73
2019-03-28T03:03:01.849Z,0.60
2019-03-28T03:05:35.700Z,0.60
2019-03-28T03:08:09.494Z,0.57
2019-03-28T03:10:43.964Z,0.47
2019-03-28T03:13:18.178Z,0.57
2019-03-28T03:15:51.869Z,0.60
2019-03-28T03:18:25.699Z,0.50
2019-03-28T03:20:59.393Z,0.60
2019-03-28T03:23:32.964Z,0.50
2019-03-28T03:26:06.929Z,0.60
2019-03-28T03:28:40.542Z,0.73
2019-03-28T03:31:20.336Z,0.77
2019-03-28T03:33:50.767Z,0.73
2019-03-28T03:36:24.355Z,1.30
2019-03-28T03:38:58.060Z,1.20
2019-03-28T03:41:31.925Z,0.50
2019-03-28T03:44:05.837Z,0.60
2019-03-28T03:46:40.060Z,0.80
2019-03-28T03:49:14.135Z,1.00
2019-03-28T03:51:48.398Z,0.70
2019-03-28T03:54:22.242Z,1.10
2019-03-28T03:56:59.078Z,0.90
2019-03-28T03:59:33.182Z,0.83
2019-03-28T04:02:07.411Z,1.00
2019-03-28T04:04:41.702Z,1.17
2019-03-28T04:07:16.406Z,0.80
2019-03-28T04:09:50.399Z,1.37
2019-03-28T04:12:24.400Z,1.10
2019-03-28T04:14:58.337Z,0.97
2019-03-28T04:17:32.331Z,1.00
2019-03-28T04:20:06.315Z,1.10
2019-03-28T04:22:40.092Z,1.20
2019-03-28T04:25:15.160Z,1.10
2019-03-28T04:27:49.630Z,1.20
2019-03-28T04:30:24.050Z,1.00
2019-03-28T04:32:57.767Z,1.37
2019-03-28T04:35:36.320Z,1.30
2019-03-28T04:38:11.267Z,1.50
2019-03-28T04:40:45.269Z,1.10
2019-03-28T04:43:19.172Z,1.10
2019-03-28T04:45:52.885Z,1.10
2019-03-28T04:48:27.311Z,1.20
2019-03-28T04:51:01.382Z,1.00
2019-03-28T04:53:35.013Z,1.00
2019-03-28T04:56:08.779Z,0.90
2019-03-28T04:58:44.780Z,1.20
2019-03-28T05:01:17.664Z,1.60
2019-03-28T05:03:51.204Z,1.07
2019-03-28T05:06:25.909Z,0.97
2019-03-28T05:08:59.872Z,1.00
2019-03-28T05:11:33.573Z,0.80
2019-03-28T05:14:07.377Z,1.10
2019-03-28T05:16:41.140Z,0.90
2019-03-28T05:19:15.155Z,1.00
2019-03-28T05:21:48.813Z,1.20
2019-03-28T05:24:25.245Z,1.30
2019-03-28T05:26:57.781Z,1.00
2019-03-28T05:29:31.253Z,0.90
2019-03-28T05:32:04.826Z,1.20
2019-03-28T05:34:38.484Z,1.20
2019-03-28T05:37:12.439Z,1.17
2019-03-28T05:39:45.999Z,1.13
2019-03-28T05:42:19.551Z,0.80
2019-03-28T05:44:53.080Z,1.00
2019-03-28T05:47:27.028Z,1.00
2019-03-28T05:50:00.557Z,1.30
2019-03-28T05:52:34.505Z,1.10
2019-03-28T05:55:08.379Z,1.30
2019-03-28T05:57:42.139Z,1.10
2019-03-28T06:00:15.972Z,1.30
2019-03-28T06:02:50.474Z,1.20
2019-03-28T06:05:24.555Z,1.77
2019-03-28T06:07:58.522Z,1.00
2019-03-28T06:10:32.281Z,1.03
2019-03-28T06:13:06.228Z,1.17
2019-03-28T06:15:41.160Z,1.20
2019-03-28T06:18:15.163Z,1.20
2019-03-28T06:20:48.922Z,1.27
2019-03-28T06:23:22.547Z,1.03
2019-03-28T06:25:56.124Z,0.90
2019-03-28T06:28:29.832Z,1.07
2019-03-28T06:31:03.843Z,1.20
2019-03-28T06:33:39.651Z,1.30
2019-03-28T06:36:14.305Z,1.07
2019-03-28T06:38:48.517Z,1.40
2019-03-28T06:41:24.042Z,1.10
2019-03-28T06:43:57.432Z,1.23
2019-03-28T06:46:31.111Z,1.13
2019-03-28T06:49:04.678Z,1.10
2019-03-28T06:51:39.682Z,1.10
2019-03-28T06:54:13.453Z,1.20
2019-03-28T06:56:47.071Z,1.37
2019-03-28T06:59:20.786Z,1.13
2019-03-28T07:01:54.569Z,1.23
2019-03-28T07:04:28.233Z,1.20
2019-03-28T07:07:01.905Z,1.00
2019-03-28T07:09:35.771Z,1.17
2019-03-28T07:12:09.581Z,0.90
2019-03-28T07:14:43.371Z,1.07
2019-03-28T07:17:17.104Z,1.17
2019-03-28T07:19:50.782Z,1.03
2019-03-28T07:22:24.310Z,1.07
2019-03-28T07:24:57.932Z,1.50
2019-03-28T07:27:31.477Z,0.80
2019-03-28T07:30:05.274Z,0.90
2019-03-28T07:32:43.132Z,1.20
2019-03-28T07:35:15.471Z,1.20
2019-03-28T07:37:51.259Z,1.10
2019-03-28T07:40:25.702Z,1.40
2019-03-28T07:42:59.617Z,1.27
2019-03-28T07:45:34.551Z,1.10
2019-03-28T07:48:09.224Z,1.13
2019-03-28T07:50:42.886Z,0.90
2019-03-28T07:53:19.577Z,0.90
2019-03-28T07:55:51.598Z,1.00
2019-03-28T07:58:25.125Z,0.87
2019-03-28T08:00:58.952Z,0.90
2019-03-28T08:03:32.721Z,0.93
2019-03-28T08:06:06.421Z,0.97
2019-03-28T08:08:40.791Z,0.90
2019-03-28T08:11:15.536Z,1.00
2019-03-28T08:13:49.280Z,0.93
2019-03-28T08:16:23.098Z,0.87
2019-03-28T08:18:56.739Z,0.93
2019-03-28T08:21:30.495Z,0.80
2019-03-28T08:24:04.111Z,0.70
2019-03-28T08:26:37.696Z,0.90
2019-03-28T08:29:11.281Z,0.83
2019-03-28T08:31:48.392Z,0.80
2019-03-28T08:34:21.939Z,0.70
2019-03-28T08:36:55.903Z,0.93
2019-03-28T08:39:30.439Z,1.00
2019-03-28T08:42:04.461Z,0.70
2019-03-28T08:44:38.677Z,0.70
2019-03-28T08:47:12.797Z,1.00
2019-03-28T08:49:46.355Z,0.67
2019-03-28T08:52:20.231Z,1.03
2019-03-28T08:54:53.920Z,0.93
2019-03-28T08:57:27.790Z,0.77
2019-03-28T09:00:01.381Z,0.80
2019-03-28T09:02:35.126Z,0.77
2019-03-28T09:05:09.042Z,0.73
2019-03-28T09:07:42.878Z,0.70
2019-03-28T09:10:16.648Z,1.00
2019-03-28T09:12:50.759Z,0.70
2019-03-28T09:15:24.505Z,0.60
2019-03-28T09:18:00.312Z,0.70
2019-03-28T09:20:33.313Z,0.70
2019-03-28T09:23:07.079Z,1.30
2019-03-28T09:25:40.549Z,1.00
2019-03-28T09:28:14.024Z,0.90
2019-03-28T09:30:49.419Z,0.63
2019-03-28T09:33:25.638Z,0.97
2019-03-28T09:35:59.392Z,1.00
2019-03-28T09:38:33.002Z,1.17
2019-03-28T09:41:06.657Z,0.80
2019-03-28T09:43:54.192Z,0.73
2019-03-28T09:46:15.201Z,0.70
2019-03-28T09:48:48.796Z,0.70
2019-03-28T09:51:22.417Z,0.87
2019-03-28T09:53:56.152Z,0.60
2019-03-28T09:56:29.972Z,0.60
2019-03-28T09:59:03.627Z,0.70
2019-03-28T10:01:37.356Z,0.80
2019-03-28T10:04:11.083Z,0.70
2019-03-28T10:06:44.844Z,0.60
2019-03-28T10:09:18.635Z,0.60
2019-03-28T10:11:52.149Z,0.77
2019-03-28T10:14:25.871Z,0.70
2019-03-28T10:16:59.667Z,0.80
2019-03-28T10:19:33.276Z,0.57
2019-03-28T10:22:06.862Z,0.73
2019-03-28T10:24:40.659Z,0.80
2019-03-28T10:27:14.166Z,0.80
2019-03-28T10:29:47.645Z,0.80
2019-03-28T10:32:21.479Z,0.93
2019-03-28T10:34:54.930Z,0.77
2019-03-28T10:37:29.707Z,0.67
2019-03-28T10:40:03.291Z,0.70
2019-03-28T10:42:36.900Z,0.60
2019-03-28T10:45:10.833Z,1.00
2019-03-28T10:47:44.762Z,0.80
2019-03-28T10:50:18.548Z,0.70
2019-03-28T10:52:52.194Z,0.90
2019-03-28T10:55:25.695Z,0.93
2019-03-28T10:57:59.428Z,0.80
2019-03-28T11:00:33.826Z,0.67
2019-03-28T11:03:07.404Z,0.90
2019-03-28T11:05:41.176Z,0.90
2019-03-28T11:08:14.765Z,0.77
2019-03-28T11:10:48.381Z,0.97
2019-03-28T11:13:22.058Z,0.97
2019-03-28T11:15:55.964Z,0.90
2019-03-28T11:18:29.599Z,0.90
2019-03-28T11:21:03.354Z,0.97
2019-03-28T11:23:56.872Z,1.00
2019-03-28T11:26:31.445Z,0.83
2019-03-28T11:29:05.345Z,0.70
2019-03-28T11:31:46.170Z,0.80
2019-03-28T11:34:14.744Z,0.80
2019-03-28T11:36:48.522Z,0.70
2019-03-28T11:39:22.334Z,0.80
2019-03-28T11:41:56.079Z,0.87
2019-03-28T11:44:29.625Z,0.80
2019-03-28T11:47:03.139Z,0.80
2019-03-28T11:49:36.665Z,0.70
2019-03-28T11:52:10.371Z,0.67
2019-03-28T11:54:44.227Z,0.73
2019-03-28T11:57:17.813Z,0.90
2019-03-28T11:59:51.313Z,0.90
2019-03-28T12:02:27.693Z,1.07
2019-03-28T12:05:01.397Z,0.90
2019-03-28T12:07:34.960Z,0.90
2019-03-28T12:10:10.082Z,1.10
2019-03-28T12:12:43.741Z,0.80
2019-03-28T12:15:19.134Z,0.80
2019-03-28T12:17:53.043Z,0.80
2019-03-28T12:20:26.565Z,0.80
2019-03-28T12:23:00.545Z,1.00
2019-03-28T12:25:34.070Z,0.87
2019-03-28T12:28:07.879Z,1.00
2019-03-28T12:30:41.535Z,0.70
2019-03-28T12:33:15.253Z,0.80
2019-03-28T12:35:48.738Z,0.87
2019-03-28T12:38:22.347Z,1.00
2019-03-28T12:40:56.531Z,0.83
2019-03-28T12:43:30.395Z,0.83
2019-03-28T12:46:04.155Z,0.90
2019-03-28T12:48:37.744Z,0.80
2019-03-28T12:51:11.295Z,1.10
2019-03-28T12:53:44.993Z,0.77
2019-03-28T12:56:18.563Z,0.93
2019-03-28T12:58:52.090Z,0.90
2019-03-28T13:01:25.611Z,1.00
2019-03-28T13:03:59.251Z,0.90
2019-03-28T13:06:33.496Z,0.90
2019-03-28T13:09:10.580Z,0.93
2019-03-28T13:11:44.355Z,0.90
2019-03-28T13:14:18.115Z,1.03
2019-03-28T13:16:51.870Z,1.27
2019-03-28T13:19:25.749Z,1.40
2019-03-28T13:21:59.306Z,1.53
2019-03-28T13:24:33.121Z,1.67
2019-03-28T13:27:06.703Z,1.43
2019-03-28T13:29:40.470Z,1.30
2019-03-28T13:32:13.978Z,1.50
2019-03-28T13:34:47.490Z,1.40
2019-03-28T13:37:20.972Z,1.17
2019-03-28T13:39:54.748Z,1.10
2019-03-28T13:42:28.559Z,1.20
2019-03-28T13:45:02.438Z,1.17
2019-03-28T13:47:35.999Z,1.63
2019-03-28T13:50:11.438Z,1.17
2019-03-28T13:52:45.389Z,1.40
2019-03-28T13:55:19.049Z,1.50
2019-03-28T13:57:53.060Z,1.00
2019-03-28T14:00:37.008Z,1.40
2019-03-28T14:03:10.842Z,1.27
2019-03-28T14:05:44.610Z,1.27
2019-03-28T14:08:18.293Z,1.20
2019-03-28T14:10:52.185Z,1.17
2019-03-28T14:13:28.397Z,1.30
2019-03-28T14:16:02.099Z,1.13
2019-03-28T14:18:35.932Z,1.00
2019-03-28T14:21:09.832Z,1.17
2019-03-28T14:23:44.583Z,0.90
2019-03-28T14:26:19.598Z,1.03
2019-03-28T14:28:53.269Z,1.17
2019-03-28T14:31:27.095Z,1.10
2019-03-28T14:34:02.628Z,0.90
2019-03-28T14:36:36.863Z,1.00
2019-03-28T14:39:12.255Z,0.83
2019-03-28T14:41:46.442Z,1.23
2019-03-28T14:44:22.927Z,1.00
2019-03-28T14:46:56.649Z,1.03
2019-03-28T14:49:30.275Z,1.00
2019-03-28T14:52:05.134Z,1.40
2019-03-28T14:54:38.729Z,1.40
2019-03-28T14:57:12.386Z,0.90
2019-03-28T14:59:47.692Z,0.83
2019-03-28T15:02:21.276Z,1.60
2019-03-28T15:04:54.753Z,1.20
2019-03-28T15:07:28.304Z,1.70
2019-03-28T15:10:02.067Z,2.47
2019-03-28T15:12:35.993Z,2.47
2019-03-28T15:15:11.402Z,0.90
2019-03-28T15:17:45.335Z,0.93
2019-03-28T15:20:19.561Z,0.80
2019-03-28T15:23:03.947Z,0.80
2019-03-28T15:25:37.662Z,0.80
2019-03-28T15:28:11.372Z,1.10
2019-03-28T15:30:45.039Z,1.20
2019-03-28T15:33:18.633Z,1.17
2019-03-28T15:35:52.249Z,1.53
2019-03-28T15:38:25.855Z,1.23
2019-03-28T15:40:59.558Z,1.20
2019-03-28T15:43:33.166Z,1.07
2019-03-28T15:46:06.814Z,1.00
2019-03-28T15:48:40.558Z,1.10
2019-03-28T15:51:14.153Z,1.10
2019-03-28T15:53:49.605Z,1.00
2019-03-28T15:56:23.661Z,1.10
2019-03-28T15:58:57.513Z,1.30
2019-03-28T16:01:31.175Z,1.00
2019-03-28T16:04:05.666Z,1.10
2019-03-28T16:06:39.399Z,1.10
2019-03-28T16:09:13.417Z,0.80
2019-03-28T16:11:47.369Z,0.80
2019-03-28T16:14:20.913Z,1.13
2019-03-28T16:16:55.110Z,1.30
2019-03-28T16:19:29.006Z,0.93
2019-03-28T16:22:04.229Z,1.00
2019-03-28T16:24:38.335Z,1.00
2019-03-28T16:27:11.843Z,1.07
2019-03-28T16:29:45.463Z,0.90
2019-03-28T16:32:19.060Z,0.83
2019-03-28T16:34:52.582Z,0.90
2019-03-28T16:37:26.161Z,1.20
2019-03-28T16:40:01.047Z,1.10
2019-03-28T16:42:34.575Z,1.63
2019-03-28T16:45:10.150Z,1.80
2019-03-28T16:47:45.006Z,1.67
2019-03-28T16:50:19.876Z,1.73
2019-03-28T16:52:53.445Z,1.40
2019-03-28T16:55:28.189Z,1.30
2019-03-28T16:58:02.500Z,1.40
2019-03-28T17:00:43.995Z,1.40
2019-03-28T17:03:19.210Z,1.60
2019-03-28T17:05:52.800Z,1.73
2019-03-28T17:08:27.502Z,1.57
2019-03-28T17:11:01.269Z,1.60
2019-03-28T17:13:35.094Z,1.53
2019-03-28T17:16:09.092Z,1.30
2019-03-28T17:18:42.899Z,1.50
2019-03-28T17:21:16.604Z,1.50
2019-03-28T17:23:50.243Z,1.53
2019-03-28T17:26:23.988Z,1.83
2019-03-28T17:28:57.576Z,1.57
2019-03-28T17:31:31.229Z,1.40
2019-03-28T17:34:04.971Z,1.40
2019-03-28T17:36:38.610Z,0.90
2019-03-28T17:39:12.422Z,1.10
2019-03-28T17:41:46.067Z,1.20
2019-03-28T17:44:19.684Z,1.23
2019-03-28T17:46:53.201Z,0.77
2019-03-28T17:49:29.757Z,0.40
2019-03-28T17:52:03.652Z,0.83
2019-03-28T17:54:37.735Z,1.37
2019-03-28T17:57:11.934Z,1.87
2019-03-28T17:59:45.584Z,1.20
2019-03-28T18:02:20.016Z,1.23
2019-03-28T18:04:53.558Z,1.47
2019-03-28T18:07:27.692Z,1.20
2019-03-28T18:10:01.429Z,1.10
2019-03-28T18:12:35.136Z,1.50
2019-03-28T18:15:08.983Z,1.40
2019-03-28T18:17:42.858Z,1.23
2019-03-28T18:20:16.644Z,1.00
2019-03-28T18:22:50.187Z,1.13
2019-03-28T18:25:23.645Z,1.40
2019-03-28T18:27:57.547Z,1.20
2019-03-28T18:30:32.711Z,1.23
2019-03-28T18:33:06.556Z,1.03
2019-03-28T18:35:40.263Z,0.97
2019-03-28T18:38:13.991Z,1.10
2019-03-28T18:40:47.810Z,0.80
2019-03-28T18:43:21.444Z,1.10
2019-03-28T18:45:55.023Z,0.80
2019-03-28T18:48:35.859Z,1.03
2019-03-28T18:51:03.544Z,0.70
2019-03-28T18:53:37.721Z,0.63
2019-03-28T18:56:12.371Z,0.50
2019-03-28T18:58:46.030Z,0.63
2019-03-28T19:01:19.942Z,0.60
2019-03-28T19:03:53.736Z,0.60
2019-03-28T19:06:27.308Z,0.53
2019-03-28T19:09:05.577Z,0.50
2019-03-28T19:11:40.881Z,0.50
2019-03-28T19:14:14.566Z,0.40
2019-03-28T19:16:49.674Z,0.50
2019-03-28T19:19:23.886Z,0.53
2019-03-28T19:21:57.604Z,0.23
2019-03-28T19:24:31.589Z,0.50
2019-03-28T19:27:05.412Z,0.60
2019-03-28T19:29:39.172Z,0.60
2019-03-28T19:32:12.864Z,0.60
2019-03-28T19:34:46.647Z,0.80
2019-03-28T19:37:24.670Z,0.70
2019-03-28T19:39:58.854Z,0.70
2019-03-28T19:42:32.880Z,0.50
2019-03-28T19:45:06.822Z,0.70
2019-03-28T19:47:40.581Z,0.67
2019-03-28T19:50:18.265Z,0.73
2019-03-28T19:52:52.044Z,0.77
2019-03-28T19:55:28.755Z,0.67
2019-03-28T19:58:02.836Z,0.80
2019-03-28T20:00:36.981Z,0.70
2019-03-28T20:03:11.060Z,0.67
2019-03-28T20:05:47.877Z,0.90
2019-03-28T20:08:20.236Z,0.80
2019-03-28T20:10:53.931Z,0.60
2019-03-28T20:13:30.747Z,0.70
2019-03-28T20:16:03.842Z,0.60
2019-03-28T20:18:42.724Z,0.60
2019-03-28T20:21:15.806Z,0.63
2019-03-28T20:23:49.533Z,0.50
2019-03-28T20:26:24.015Z,0.60
2019-03-28T20:28:57.959Z,0.70
2019-03-28T20:31:32.052Z,0.40
2019-03-28T20:34:05.705Z,0.53
2019-03-28T20:36:43.196Z,0.80
2019-03-28T20:39:15.752Z,0.80
2019-03-28T20:41:49.802Z,0.60
2019-03-28T20:44:24.089Z,0.53
2019-03-28T20:46:58.879Z,0.50
2019-03-28T20:49:32.992Z,0.60
2019-03-28T20:52:09.426Z,0.53
2019-03-28T20:54:43.291Z,0.57
2019-03-28T20:57:17.230Z,0.50
2019-03-28T20:59:51.173Z,0.60
2019-03-28T21:02:25.490Z,0.70
2019-03-28T21:05:01.881Z,0.70
2019-03-28T21:07:36.429Z,0.60
2019-03-28T21:10:11.908Z,0.70
2019-03-28T21:12:45.861Z,0.70
2019-03-28T21:15:20.526Z,0.50
2019-03-28T21:17:54.505Z,0.70
2019-03-28T21:20:28.408Z,0.43
2019-03-28T21:23:05.004Z,0.67
2019-03-28T21:25:37.349Z,0.63
2019-03-28T21:28:13.635Z,0.60
2019-03-28T21:30:47.722Z,0.60
2019-03-28T21:33:21.411Z,0.50
2019-03-28T21:35:55.457Z,0.60
2019-03-28T21:38:30.403Z,0.50
2019-03-28T21:41:04.202Z,0.70
2019-03-28T21:43:37.843Z,0.50
2019-03-28T21:46:12.513Z,0.70
2019-03-28T21:48:46.330Z,0.53
2019-03-28T21:51:20.452Z,0.77
2019-03-28T21:53:54.155Z,0.53
2019-03-28T21:56:28.253Z,0.60
2019-03-28T21:59:01.932Z,0.50
2019-03-28T22:01:35.932Z,0.73
2019-03-28T22:04:10.163Z,0.83
2019-03-28T22:06:44.488Z,0.60
2019-03-28T22:09:18.726Z,0.70
2019-03-28T22:11:52.951Z,0.60
2019-03-28T22:14:26.920Z,0.70
2019-03-28T22:17:01.244Z,0.73
2019-03-28T22:19:35.206Z,0.50
2019-03-28T22:22:08.825Z,0.80
2019-03-28T22:24:42.554Z,0.60
2019-03-28T22:27:16.549Z,0.57
2019-03-28T22:29:50.560Z,0.67
2019-03-28T22:32:24.422Z,0.70
2019-03-28T22:34:59.152Z,0.60
2019-03-28T22:37:33.775Z,0.50
2019-03-28T22:40:11.785Z,0.70
2019-03-28T22:42:44.014Z,0.50
2019-03-28T22:45:18.384Z,0.87
2019-03-28T22:47:52.276Z,1.00
2019-03-28T22:50:26.448Z,1.30
2019-03-28T22:53:00.103Z,0.80
2019-03-28T22:55:33.655Z,0.70
2019-03-28T22:58:08.065Z,0.60
2019-03-28T23:00:49.640Z,0.70
2019-03-28T23:03:23.497Z,0.70
2019-03-28T23:05:57.765Z,0.60
2019-03-28T23:08:32.929Z,0.60
2019-03-28T23:11:07.034Z,0.50
2019-03-28T23:13:40.901Z,0.60
2019-03-28T23:16:14.578Z,0.60
2019-03-28T23:18:48.305Z,0.30
2019-03-28T23:21:22.007Z,0.90
2019-03-28T23:23:55.701Z,0.77
2019-03-28T23:26:29.384Z,0.80
2019-03-28T23:29:03.069Z,0.60
2019-03-28T23:31:36.764Z,0.70
2019-03-28T23:34:10.292Z,0.70
2019-03-28T23:36:44.017Z,0.60
2019-03-28T23:39:17.942Z,0.60
2019-03-28T23:41:51.916Z,0.60
2019-03-28T23:44:25.479Z,0.70
2019-03-28T23:46:59.253Z,0.90
2019-03-28T23:49:32.982Z,0.80
2019-03-28T23:52:06.627Z,0.63
2019-03-28T23:54:40.287Z,1.23
2019-03-28T23:57:14.229Z,0.50
2019-03-28T23:59:48.056Z,0.63
